createdAt,value
2022-08-28T00:00:42.163Z,102014.56
2022-08-28T00:03:10.869Z,102020.88
2022-08-28T00:05:39.928Z,102022.03
2022-08-28T00:08:07.665Z,102024.03
2022-08-28T00:10:34.670Z,102023.28
2022-08-28T00:13:01.694Z,102031.03
2022-08-28T00:15:35.147Z,102026.59
2022-08-28T00:18:03.863Z,102035.75
2022-08-28T00:20:31.975Z,102038.94
2022-08-28T00:22:59.625Z,102031.75
2022-08-28T00:25:29.746Z,102036.03
2022-08-28T00:27:59.863Z,102029.84
2022-08-28T00:30:41.476Z,102031.66
2022-08-28T00:33:12.792Z,102034.41
2022-08-28T00:35:41.036Z,102036.13
2022-08-28T00:38:12.746Z,102035.25
2022-08-28T00:40:42.784Z,102032.41
2022-08-28T00:43:11.369Z,102027.88
2022-08-28T00:45:40.109Z,102030.50
2022-08-28T00:48:07.787Z,102030.50
2022-08-28T00:50:56.742Z,102034.97
2022-08-28T00:53:29.955Z,102030.50
2022-08-28T00:56:01.813Z,102025.22
2022-08-28T00:58:31.462Z,102026.09
2022-08-28T01:01:00.735Z,102027.03
2022-08-28T01:03:28.634Z,102028.94
2022-08-28T01:05:55.906Z,102025.22
2022-08-28T01:08:23.109Z,102026.09
2022-08-28T01:10:55.288Z,102017.38
2022-08-28T01:13:24.973Z,102020.03
2022-08-28T01:15:52.065Z,102013.03
2022-08-28T01:18:20.264Z,102017.38
2022-08-28T01:20:59.377Z,102014.84
2022-08-28T01:24:05.097Z,102019.28
2022-08-28T01:26:32.320Z,102014.06
2022-08-28T01:29:00.824Z,102014.16
2022-08-28T01:31:31.360Z,102017.78
2022-08-28T01:34:01.699Z,102010.78
2022-08-28T01:36:30.036Z,102006.53
2022-08-28T01:39:09.093Z,102014.56
2022-08-28T01:41:40.087Z,102004.56
2022-08-28T01:44:06.972Z,102016.84
2022-08-28T01:46:33.910Z,102019.66
2022-08-28T01:49:00.851Z,102013.63
2022-08-28T01:51:29.399Z,102017.25
2022-08-28T01:54:02.625Z,102017.41
2022-08-28T01:56:29.992Z,102019.31
2022-08-28T01:58:56.812Z,102022.16
2022-08-28T02:01:23.715Z,102027.63
2022-08-28T02:03:53.098Z,102015.44
2022-08-28T02:06:20.168Z,102021.75
2022-08-28T02:08:47.130Z,102021.00
2022-08-28T02:11:14.145Z,102026.38
2022-08-28T02:13:41.058Z,102016.88
2022-08-28T02:16:09.578Z,102018.81
2022-08-28T02:18:38.116Z,102020.72
2022-08-28T02:21:06.375Z,102032.25
2022-08-28T02:23:33.144Z,102033.28
2022-08-28T02:26:00.030Z,102028.16
2022-08-28T02:28:26.884Z,102037.97
2022-08-28T02:30:53.761Z,102034.66
2022-08-28T02:33:20.720Z,102033.97
2022-08-28T02:35:47.849Z,102040.97
2022-08-28T02:38:14.620Z,102035.69
2022-08-28T02:40:41.731Z,102028.88
2022-08-28T02:43:08.662Z,102041.16
2022-08-28T02:45:36.336Z,102041.34
2022-08-28T02:48:03.952Z,102040.59
2022-08-28T02:50:31.595Z,102033.66
2022-08-28T02:52:58.613Z,102038.13
2022-08-28T02:55:25.839Z,102037.94
2022-08-28T02:57:54.699Z,102017.34
2022-08-28T03:00:26.518Z,102037.09
2022-08-28T03:02:53.560Z,102030.84
2022-08-28T03:05:24.187Z,102039.63
2022-08-28T03:07:53.491Z,102037.94
2022-08-28T03:10:21.096Z,102034.63
2022-08-28T03:12:48.307Z,102043.31
2022-08-28T03:15:15.542Z,102042.47
2022-08-28T03:17:42.358Z,102045.13
2022-08-28T03:20:12.056Z,102033.78
2022-08-28T03:22:58.005Z,102032.16
2022-08-28T03:25:25.766Z,102033.88
2022-08-28T03:27:52.993Z,102028.59
2022-08-28T03:30:21.529Z,102031.22
2022-08-28T03:32:48.499Z,102032.25
2022-08-28T03:35:15.945Z,102034.31
2022-08-28T03:37:43.227Z,102040.72
2022-08-28T03:40:11.131Z,102035.78
2022-08-28T03:42:38.018Z,102037.00
2022-08-28T03:45:08.026Z,102047.00
2022-08-28T03:47:37.416Z,102037.72
2022-08-28T03:50:05.277Z,102044.22
2022-08-28T03:52:32.449Z,102041.91
2022-08-28T03:54:59.208Z,102044.91
2022-08-28T03:57:26.154Z,102039.13
2022-08-28T03:59:53.884Z,102032.59
2022-08-28T04:02:21.542Z,102038.97
2022-08-28T04:04:50.330Z,102040.16
2022-08-28T04:07:18.863Z,102037.78
2022-08-28T04:09:46.006Z,102036.25
2022-08-28T04:12:13.221Z,102041.69
2022-08-28T04:14:40.238Z,102042.06
2022-08-28T04:17:07.764Z,102040.16
2022-08-28T04:19:34.796Z,102037.69
2022-08-28T04:22:01.832Z,102038.63
2022-08-28T04:24:28.588Z,102036.91
2022-08-28T04:26:55.489Z,102035.06
2022-08-28T04:29:23.255Z,102035.97
2022-08-28T04:31:50.586Z,102038.47
2022-08-28T04:34:18.158Z,102036.66
2022-08-28T04:36:46.146Z,102036.66
2022-08-28T04:39:13.287Z,102046.28
2022-08-28T04:41:40.307Z,102046.28
2022-08-28T04:44:07.674Z,102033.19
2022-08-28T04:46:34.594Z,102035.06
2022-08-28T04:49:01.561Z,102031.63
2022-08-28T04:51:29.027Z,102036.13
2022-08-28T04:53:56.696Z,102035.34
2022-08-28T04:56:24.211Z,102028.38
2022-08-28T04:58:51.112Z,102030.06
2022-08-28T05:01:21.588Z,102028.47
2022-08-28T05:03:52.684Z,102026.75
2022-08-28T05:06:19.625Z,102025.16
2022-08-28T05:08:46.496Z,102028.78
2022-08-28T05:11:32.707Z,102017.63
2022-08-28T05:14:01.074Z,102023.59
2022-08-28T05:16:27.923Z,102030.66
2022-08-28T05:18:54.736Z,102009.91
2022-08-28T05:21:23.182Z,102029.59
2022-08-28T05:23:53.646Z,102031.34
2022-08-28T05:26:21.036Z,102023.59
2022-08-28T05:28:48.671Z,102031.44
2022-08-28T05:31:18.489Z,102029.75
2022-08-28T05:33:47.559Z,102028.88
2022-08-28T05:36:15.241Z,102024.53
2022-08-28T05:38:42.094Z,102031.69
2022-08-28T05:41:08.970Z,102027.44
2022-08-28T05:43:36.488Z,102031.69
2022-08-28T05:46:10.505Z,102031.50
2022-08-28T05:48:39.679Z,102028.72
2022-08-28T05:51:08.698Z,102026.06
2022-08-28T05:53:41.657Z,102037.38
2022-08-28T05:56:10.019Z,102031.19
2022-08-28T05:58:37.893Z,102032.03
2022-08-28T06:01:11.418Z,102033.66
2022-08-28T06:03:40.366Z,102031.09
2022-08-28T06:06:09.496Z,102040.63
2022-08-28T06:08:37.152Z,102038.78
2022-08-28T06:11:05.424Z,102034.25
2022-08-28T06:13:34.481Z,102041.19
2022-08-28T06:16:03.139Z,102054.13
2022-08-28T06:18:30.857Z,102051.25
2022-08-28T06:21:02.827Z,102053.63
2022-08-28T06:23:29.942Z,102055.09
2022-08-28T06:25:58.287Z,102054.81
2022-08-28T06:28:27.658Z,102058.88
2022-08-28T06:31:18.595Z,102064.69
2022-08-28T06:33:42.663Z,102066.03
2022-08-28T06:36:09.484Z,102065.78
2022-08-28T06:38:36.225Z,102068.16
2022-08-28T06:41:11.617Z,102076.59
2022-08-28T06:43:38.354Z,102072.00
2022-08-28T06:46:05.753Z,102073.50
2022-08-28T06:48:32.736Z,102071.69
2022-08-28T06:51:00.103Z,102078.63
2022-08-28T06:53:30.841Z,102075.03
2022-08-28T06:56:08.673Z,102073.16
2022-08-28T06:58:40.714Z,102078.25
2022-08-28T07:01:10.846Z,102088.47
2022-08-28T07:03:42.561Z,102092.47
2022-08-28T07:06:14.116Z,102095.44
2022-08-28T07:08:42.135Z,102099.34
2022-08-28T07:11:14.772Z,102098.91
2022-08-28T07:13:42.466Z,102107.31
2022-08-28T07:16:10.063Z,102103.56
2022-08-28T07:18:37.317Z,102113.59
2022-08-28T07:21:04.127Z,102106.06
2022-08-28T07:23:32.638Z,102100.94
2022-08-28T07:26:00.416Z,102100.41
2022-08-28T07:28:27.179Z,102107.78
2022-08-28T07:31:03.713Z,102101.16
2022-08-28T07:33:32.781Z,102100.88
2022-08-28T07:36:00.969Z,102109.84
2022-08-28T07:38:28.254Z,102102.91
2022-08-28T07:40:55.533Z,102101.97
2022-08-28T07:43:40.904Z,102111.88
2022-08-28T07:46:09.603Z,102119.31
2022-08-28T07:48:38.085Z,102118.06
2022-08-28T07:51:06.310Z,102117.72
2022-08-28T07:53:36.335Z,102116.78
2022-08-28T07:56:04.846Z,102113.97
2022-08-28T07:58:33.015Z,102110.16
2022-08-28T08:01:00.002Z,102111.25
2022-08-28T08:03:29.000Z,102121.25
2022-08-28T08:06:03.095Z,102120.84
2022-08-28T08:08:31.897Z,102117.03
2022-08-28T08:11:10.669Z,102118.56
2022-08-28T08:13:39.422Z,102123.88
2022-08-28T08:16:17.359Z,102124.78
2022-08-28T08:18:44.485Z,102123.75
2022-08-28T08:21:14.476Z,102118.47
2022-08-28T08:23:41.775Z,102124.50
2022-08-28T08:26:15.977Z,102120.88
2022-08-28T08:28:43.741Z,102124.50
2022-08-28T08:31:11.955Z,102128.97
2022-08-28T08:33:43.004Z,102129.72
2022-08-28T08:36:11.803Z,102129.53
2022-08-28T08:38:39.402Z,102135.38
2022-08-28T08:41:30.784Z,102139.59
2022-08-28T08:44:03.589Z,102141.97
2022-08-28T08:47:03.806Z,102138.38
2022-08-28T08:49:38.631Z,102143.09
2022-08-28T08:52:58.954Z,102145.00
2022-08-28T08:55:31.587Z,102141.41
2022-08-28T08:58:07.835Z,102136.84
2022-08-28T09:00:43.361Z,102136.63
2022-08-28T09:03:16.284Z,102134.72
2022-08-28T09:05:50.217Z,102139.22
2022-08-28T09:08:34.229Z,102129.31
2022-08-28T09:11:07.026Z,102129.41
2022-08-28T09:14:02.942Z,102139.91
2022-08-28T09:16:38.547Z,102148.84
2022-08-28T09:19:09.590Z,102147.31
2022-08-28T09:21:45.160Z,102151.53
2022-08-28T09:24:20.945Z,102149.00
2022-08-28T09:26:57.818Z,102131.19
2022-08-28T09:29:37.532Z,102152.94
2022-08-28T09:32:30.551Z,102152.88
2022-08-28T09:35:02.507Z,102149.38
2022-08-28T09:37:32.385Z,102153.28
2022-08-28T09:40:22.461Z,102151.72
2022-08-28T09:43:18.669Z,102143.47
2022-08-28T09:45:51.872Z,102148.00
2022-08-28T09:48:24.788Z,102147.06
2022-08-28T09:51:03.746Z,102139.22
2022-08-28T09:53:34.389Z,102150.00
2022-08-28T09:56:24.545Z,102149.19
2022-08-28T09:59:00.039Z,102148.59
2022-08-28T10:02:06.240Z,102147.66
2022-08-28T10:05:10.680Z,102140.50
2022-08-28T10:08:03.158Z,102142.22
2022-08-28T10:10:49.738Z,102132.16
2022-08-28T10:13:27.582Z,102133.81
2022-08-28T10:16:26.383Z,102136.28
2022-08-28T10:19:20.005Z,102130.59
2022-08-28T10:21:55.489Z,102142.94
2022-08-28T10:24:58.815Z,102132.16
2022-08-28T10:27:44.246Z,102137.63
2022-08-28T10:30:15.145Z,102135.72
2022-08-28T10:32:54.610Z,102129.38
2022-08-28T10:35:44.110Z,102133.84
2022-08-28T10:38:50.815Z,102141.06
2022-08-28T10:41:33.981Z,102135.09
2022-08-28T10:44:03.889Z,102144.94
2022-08-28T10:46:52.810Z,102146.22
2022-08-28T10:49:37.380Z,102134.66
2022-08-28T10:52:39.169Z,102146.78
2022-08-28T10:55:14.066Z,102140.56
2022-08-28T10:58:03.929Z,102146.50
2022-08-28T11:00:31.740Z,102147.97
2022-08-28T11:03:22.177Z,102141.59
2022-08-28T11:06:05.860Z,102146.75
2022-08-28T11:08:37.136Z,102150.31
2022-08-28T11:11:06.811Z,102142.75
2022-08-28T11:14:01.563Z,102142.69
2022-08-28T11:16:28.346Z,102141.94
2022-08-28T11:18:59.983Z,102150.13
2022-08-28T11:21:33.147Z,102143.13
2022-08-28T11:24:28.365Z,102151.56
2022-08-28T11:27:21.649Z,102152.44
2022-08-28T11:30:11.164Z,102147.34
2022-08-28T11:32:56.820Z,102156.88
2022-08-28T11:35:29.603Z,102150.47
2022-08-28T11:37:58.527Z,102151.75
2022-08-28T11:40:32.095Z,102147.38
2022-08-28T11:43:34.984Z,102147.31
2022-08-28T11:46:10.738Z,102153.63
2022-08-28T11:48:39.540Z,102146.88
2022-08-28T11:51:18.443Z,102143.97
2022-08-28T11:53:51.664Z,102141.66
2022-08-28T11:56:42.707Z,102138.66
2022-08-28T11:59:25.501Z,102143.72
2022-08-28T12:02:43.271Z,102138.25
2022-08-28T12:05:15.800Z,102140.84
2022-08-28T12:07:51.304Z,102132.13
2022-08-28T12:10:27.660Z,102139.31
2022-08-28T12:13:02.920Z,102137.06
2022-08-28T12:15:32.443Z,102137.75
2022-08-28T12:18:11.163Z,102144.25
2022-08-28T12:21:00.347Z,102138.75
2022-08-28T12:23:30.090Z,102136.47
2022-08-28T12:26:04.217Z,102132.38
2022-08-28T12:28:59.103Z,102139.03
2022-08-28T12:31:45.801Z,102132.69
2022-08-28T12:34:46.345Z,102130.56
2022-08-28T12:37:52.776Z,102133.38
2022-08-28T12:40:23.119Z,102135.03
2022-08-28T12:43:02.923Z,102118.38
2022-08-28T12:45:40.737Z,102127.66
2022-08-28T12:48:18.077Z,102128.94
2022-08-28T12:50:44.954Z,102120.16
2022-08-28T12:53:17.827Z,102128.63
2022-08-28T12:55:46.633Z,102125.53
2022-08-28T12:58:33.631Z,102122.75
2022-08-28T13:01:12.372Z,102126.44
2022-08-28T13:03:43.359Z,102113.94
2022-08-28T13:06:11.291Z,102119.16
2022-08-28T13:08:38.403Z,102113.56
2022-08-28T13:11:05.908Z,102111.13
2022-08-28T13:13:45.350Z,102106.78
2022-08-28T13:16:33.386Z,102110.69
2022-08-28T13:19:04.381Z,102105.75
2022-08-28T13:21:58.643Z,102097.78
2022-08-28T13:24:43.953Z,102106.44
2022-08-28T13:27:19.557Z,102107.47
2022-08-28T13:29:57.420Z,102101.25
2022-08-28T13:32:27.962Z,102099.06
2022-08-28T13:35:22.193Z,102097.03
2022-08-28T13:37:55.033Z,102099.06
2022-08-28T13:40:58.785Z,102099.22
2022-08-28T13:43:29.153Z,102093.63
2022-08-28T13:45:56.124Z,102085.50
2022-08-28T13:48:25.418Z,102093.03
2022-08-28T13:50:58.793Z,102094.00
2022-08-28T13:53:25.781Z,102087.91
2022-08-28T13:55:52.589Z,102087.94
2022-08-28T13:58:19.496Z,102083.22
2022-08-28T14:00:48.603Z,102082.59
2022-08-28T14:03:34.419Z,102089.53
2022-08-28T14:06:05.760Z,102088.84
2022-08-28T14:08:32.662Z,102094.41
2022-08-28T14:10:59.941Z,102090.16
2022-08-28T14:13:28.249Z,102082.59
2022-08-28T14:15:56.705Z,102084.97
2022-08-28T14:18:25.260Z,102079.56
2022-08-28T14:20:52.655Z,102081.94
2022-08-28T14:23:19.710Z,102084.31
2022-08-28T14:25:47.701Z,102080.56
2022-08-28T14:28:15.621Z,102079.53
2022-08-28T14:30:48.545Z,102079.72
2022-08-28T14:33:18.855Z,102081.44
2022-08-28T14:35:49.131Z,102082.09
2022-08-28T14:38:16.140Z,102082.44
2022-08-28T14:40:44.422Z,102081.75
2022-08-28T14:43:13.205Z,102085.59
2022-08-28T14:45:49.715Z,102081.94
2022-08-28T14:48:18.650Z,102086.31
2022-08-28T14:50:48.184Z,102080.88
2022-08-28T14:53:16.091Z,102079.22
2022-08-28T14:55:45.541Z,102081.53
2022-08-28T14:58:13.586Z,102078.41
2022-08-28T15:00:43.873Z,102069.38
2022-08-28T15:03:11.523Z,102085.91
2022-08-28T15:05:38.647Z,102077.53
2022-08-28T15:08:10.290Z,102081.91
2022-08-28T15:10:42.417Z,102080.72
2022-08-28T15:13:11.415Z,102080.22
2022-08-28T15:15:39.736Z,102071.50
2022-08-28T15:18:07.649Z,102067.78
2022-08-28T15:20:39.219Z,102073.34
2022-08-28T15:23:06.181Z,102071.13
2022-08-28T15:25:33.113Z,102068.22
2022-08-28T15:27:59.860Z,102050.06
2022-08-28T15:30:26.973Z,102058.34
2022-08-28T15:32:54.464Z,102048.84
2022-08-28T15:35:21.421Z,102061.03
2022-08-28T15:37:48.787Z,102054.06
2022-08-28T15:40:34.117Z,102054.31
2022-08-28T15:43:00.946Z,102048.19
2022-08-28T15:45:27.819Z,102049.16
2022-08-28T15:47:54.713Z,102044.34
2022-08-28T15:50:21.925Z,102045.97
2022-08-28T15:52:48.791Z,102038.94
2022-08-28T15:55:16.019Z,102039.19
2022-08-28T15:57:42.972Z,102042.81
2022-08-28T16:00:10.567Z,102040.13
2022-08-28T16:02:37.643Z,102040.47
2022-08-28T16:05:04.896Z,102036.81
2022-08-28T16:07:31.695Z,102030.38
2022-08-28T16:09:58.548Z,102036.84
2022-08-28T16:12:25.689Z,102024.31
2022-08-28T16:14:52.565Z,102028.63
2022-08-28T16:17:19.382Z,102042.22
2022-08-28T16:19:46.843Z,102026.63
2022-08-28T16:22:16.031Z,102028.44
2022-08-28T16:24:44.105Z,102038.41
2022-08-28T16:27:15.339Z,102041.59
2022-08-28T16:29:44.295Z,102043.94
2022-08-28T16:32:11.752Z,102032.88
2022-08-28T16:34:39.183Z,102038.97
2022-08-28T16:37:07.997Z,102043.50
2022-08-28T16:39:35.989Z,102038.53
2022-08-28T16:42:03.121Z,102036.38
2022-08-28T16:44:30.135Z,102037.75
2022-08-28T16:46:57.299Z,102036.53
2022-08-28T16:49:24.795Z,102034.75
2022-08-28T16:51:51.839Z,102045.09
2022-08-28T16:54:18.972Z,102049.22
2022-08-28T16:56:46.573Z,102040.59
2022-08-28T16:59:16.644Z,102041.91
2022-08-28T17:01:43.697Z,102041.91
2022-08-28T17:04:12.491Z,102041.91
2022-08-28T17:06:40.199Z,102038.91
2022-08-28T17:09:06.982Z,102040.59
2022-08-28T17:11:33.960Z,102041.59
2022-08-28T17:14:00.715Z,102041.91
2022-08-28T17:16:31.508Z,102035.44
2022-08-28T17:18:59.564Z,102038.59
2022-08-28T17:21:44.775Z,102030.28
2022-08-28T17:24:14.877Z,102038.03
2022-08-28T17:26:42.727Z,102027.88
2022-08-28T17:29:09.569Z,102032.59
2022-08-28T17:31:37.418Z,102022.91
2022-08-28T17:34:05.750Z,102024.31
2022-08-28T17:36:34.342Z,102025.50
2022-08-28T17:39:04.084Z,102018.97
2022-08-28T17:41:32.119Z,102019.84
2022-08-28T17:44:00.098Z,102025.09
2022-08-28T17:46:26.955Z,102027.81
2022-08-28T17:48:55.777Z,102024.44
2022-08-28T17:51:41.999Z,102025.28
2022-08-28T17:54:15.424Z,102021.81
2022-08-28T17:56:42.842Z,102027.88
2022-08-28T17:59:11.615Z,102031.16
2022-08-28T18:01:39.235Z,102033.53
2022-08-28T18:04:06.194Z,102027.78
2022-08-28T18:06:33.208Z,102023.97
2022-08-28T18:09:00.626Z,102037.22
2022-08-28T18:11:27.795Z,102032.66
2022-08-28T18:13:54.777Z,102033.09
2022-08-28T18:16:21.786Z,102029.00
2022-08-28T18:18:48.654Z,102032.94
2022-08-28T18:21:15.417Z,102033.50
2022-08-28T18:23:42.323Z,102023.63
2022-08-28T18:26:09.213Z,102028.00
2022-08-28T18:28:36.792Z,102037.28
2022-08-28T18:31:06.315Z,102035.88
2022-08-28T18:33:33.459Z,102032.75
2022-08-28T18:36:00.255Z,102040.09
2022-08-28T18:38:35.037Z,102037.81
2022-08-28T18:41:05.757Z,102039.47
2022-08-28T18:43:33.095Z,102032.03
2022-08-28T18:46:01.361Z,102042.97
2022-08-28T18:48:28.827Z,102043.59
2022-08-28T18:50:55.643Z,102045.38
2022-08-28T18:53:23.796Z,102040.88
2022-08-28T18:55:52.770Z,102045.31
2022-08-28T18:58:21.689Z,102044.16
2022-08-28T19:00:49.599Z,102050.16
2022-08-28T19:03:16.395Z,102058.69
2022-08-28T19:05:43.443Z,102048.53
2022-08-28T19:08:10.406Z,102058.03
2022-08-28T19:10:38.356Z,102062.94
2022-08-28T19:13:06.605Z,102067.81
2022-08-28T19:15:34.839Z,102070.13
2022-08-28T19:18:02.727Z,102064.59
2022-08-28T19:20:30.319Z,102072.38
2022-08-28T19:22:58.318Z,102075.09
2022-08-28T19:25:28.645Z,102074.16
2022-08-28T19:27:58.842Z,102081.97
2022-08-28T19:30:27.898Z,102086.06
2022-08-28T19:32:55.101Z,102087.81
2022-08-28T19:35:24.585Z,102093.88
2022-08-28T19:37:52.594Z,102092.69
2022-08-28T19:40:20.689Z,102094.13
2022-08-28T19:42:48.113Z,102092.03
2022-08-28T19:45:15.609Z,102097.88
2022-08-28T19:47:42.543Z,102098.97
2022-08-28T19:50:11.814Z,102101.88
2022-08-28T19:52:39.002Z,102102.25
2022-08-28T19:55:06.819Z,102103.47
2022-08-28T19:57:34.727Z,102111.69
2022-08-28T20:00:02.178Z,102112.75
2022-08-28T20:02:29.618Z,102113.03
2022-08-28T20:04:56.694Z,102115.91
2022-08-28T20:07:25.114Z,102118.81
2022-08-28T20:09:52.601Z,102124.38
2022-08-28T20:12:19.964Z,102126.31
2022-08-28T20:14:47.467Z,102125.69
2022-08-28T20:17:14.495Z,102128.47
2022-08-28T20:19:41.681Z,102133.31
2022-08-28T20:22:08.631Z,102126.53
2022-08-28T20:24:35.555Z,102132.19
2022-08-28T20:27:02.458Z,102134.38
2022-08-28T20:29:29.371Z,102132.31
2022-08-28T20:31:56.571Z,102137.81
2022-08-28T20:34:23.523Z,102134.53
2022-08-28T20:36:51.070Z,102135.97
2022-08-28T20:39:19.513Z,102138.13
2022-08-28T20:41:47.346Z,102139.31
2022-08-28T20:44:17.712Z,102138.69
2022-08-28T20:46:44.641Z,102143.38
2022-08-28T20:49:18.700Z,102146.28
2022-08-28T20:51:58.872Z,102145.66
2022-08-28T20:54:28.049Z,102146.84
2022-08-28T20:56:57.371Z,102141.97
2022-08-28T20:59:28.920Z,102143.91
2022-08-28T21:02:09.260Z,102141.56
2022-08-28T21:04:37.523Z,102136.09
2022-08-28T21:07:06.098Z,102146.00
2022-08-28T21:09:39.604Z,102147.06
2022-08-28T21:12:20.236Z,102151.03
2022-08-28T21:14:51.262Z,102145.41
2022-08-28T21:17:22.684Z,102153.84
2022-08-28T21:19:58.356Z,102151.56
2022-08-28T21:22:25.140Z,102153.81
2022-08-28T21:24:52.015Z,102159.69
2022-08-28T21:27:18.839Z,102166.50
2022-08-28T21:29:46.187Z,102158.50
2022-08-28T21:32:13.659Z,102157.16
2022-08-28T21:34:40.416Z,102162.03
2022-08-28T21:37:07.174Z,102165.97
2022-08-28T21:39:35.411Z,102154.81
2022-08-28T21:42:02.195Z,102163.81
2022-08-28T21:44:29.211Z,102161.59
2022-08-28T21:46:56.003Z,102172.63
2022-08-28T21:49:23.223Z,102172.19
2022-08-28T21:51:50.602Z,102169.31
2022-08-28T21:54:18.401Z,102161.19
2022-08-28T21:56:46.357Z,102172.22
2022-08-28T21:59:15.173Z,102172.81
2022-08-28T22:01:42.219Z,102163.75
2022-08-28T22:04:09.618Z,102174.16
2022-08-28T22:06:36.634Z,102169.53
2022-08-28T22:09:05.235Z,102178.63
2022-08-28T22:11:32.983Z,102178.50
2022-08-28T22:14:00.592Z,102183.97
2022-08-28T22:16:28.950Z,102188.63
2022-08-28T22:18:55.797Z,102189.84
2022-08-28T22:21:44.150Z,102184.94
2022-08-28T22:24:12.305Z,102193.66
2022-08-28T22:26:40.281Z,102193.66
2022-08-28T22:29:08.056Z,102191.94
2022-08-28T22:31:36.652Z,102193.66
2022-08-28T22:34:06.086Z,102188.16
2022-08-28T22:36:33.297Z,102194.94
2022-08-28T22:39:00.122Z,102194.84
2022-08-28T22:41:27.065Z,102201.88
2022-08-28T22:43:54.257Z,102197.41
2022-08-28T22:46:21.202Z,102201.97
2022-08-28T22:48:48.341Z,102197.50
2022-08-28T22:51:18.562Z,102203.56
2022-08-28T22:53:46.909Z,102198.16
2022-08-28T22:56:14.759Z,102201.56
2022-08-28T22:58:42.066Z,102204.88
2022-08-28T23:01:13.530Z,102197.59
2022-08-28T23:03:40.856Z,102202.03
2022-08-28T23:06:08.030Z,102196.81
2022-08-28T23:08:35.283Z,102199.69
2022-08-28T23:11:02.210Z,102204.22
2022-08-28T23:13:30.094Z,102204.31
2022-08-28T23:15:57.337Z,102211.41
2022-08-28T23:18:24.844Z,102207.94
2022-08-28T23:20:52.606Z,102201.00
2022-08-28T23:23:19.614Z,102204.63
2022-08-28T23:25:46.466Z,102206.44
2022-08-28T23:28:14.290Z,102195.81
2022-08-28T23:30:48.341Z,102208.94
2022-08-28T23:33:23.622Z,102203.66
2022-08-28T23:35:51.172Z,102199.22
2022-08-28T23:38:18.022Z,102197.41
2022-08-28T23:40:44.778Z,102195.69
2022-08-28T23:43:12.221Z,102201.97
2022-08-28T23:45:40.618Z,102188.91
2022-08-28T23:48:08.036Z,102196.09
2022-08-28T23:50:34.925Z,102192.81
2022-08-28T23:53:02.766Z,102199.13
2022-08-28T23:55:31.289Z,102194.00
2022-08-28T23:58:00.398Z,102194.22
